Time;durP1;ratioP1;P1;durP2;ratioP2;P2;SDS_P1;SDS_P2;PMS_P1;PMS_P2;Temp;Humidity;BMP_temperature;BMP_pressure;BME280_temperature;BME280_humidity;BME280_pressure;Samples;Min_cycle;Max_cycle;Signal;HPM_P1;HPM_P2
2021/06/09 00:00:36;;;;;;;2.45;1.80;;;26.60;49.50;;;;;;5049579;28;20122;-64
2021/06/09 00:03:01;;;;;;;2.22;1.60;;;26.60;49.50;;;;;;5062643;28;20060;-64
2021/06/09 00:05:27;;;;;;;2.65;1.90;;;26.60;49.40;;;;;;5057758;28;20605;-64
2021/06/09 00:07:53;;;;;;;2.33;1.90;;;26.60;49.50;;;;;;5053222;28;20039;-64
2021/06/09 00:10:19;;;;;;;2.50;1.88;;;26.60;49.40;;;;;;5048033;28;20032;-64
2021/06/09 00:12:44;;;;;;;2.15;1.73;;;26.60;49.50;;;;;;5052907;28;20036;-64
2021/06/09 00:15:13;;;;;;;2.05;1.58;;;26.60;49.50;;;;;;5047967;28;20743;-63
2021/06/09 00:17:39;;;;;;;2.88;1.77;;;26.60;49.40;;;;;;5048810;28;20124;-63
2021/06/09 00:20:08;;;;;;;2.67;1.90;;;26.60;49.50;;;;;;5054950;28;20107;-63
2021/06/09 00:22:34;;;;;;;2.20;1.70;;;26.60;49.50;;;;;;5060029;28;20494;-64
2021/06/09 00:24:59;;;;;;;2.28;1.70;;;26.60;49.50;;;;;;5056128;28;20037;-64
2021/06/09 00:27:26;;;;;;;2.22;1.85;;;26.60;49.50;;;;;;5063996;28;20467;-64
2021/06/09 00:29:52;;;;;;;2.22;1.70;;;26.60;49.40;;;;;;5049958;28;20029;-64
2021/06/09 00:32:17;;;;;;;2.53;1.70;;;26.60;49.40;;;;;;5056740;28;20491;-63
2021/06/09 00:34:43;;;;;;;2.20;1.70;;;26.50;49.30;;;;;;5052502;28;20078;-64
2021/06/09 00:37:08;;;;;;;2.10;1.65;;;26.60;49.40;;;;;;5049864;28;20124;-64
2021/06/09 00:39:34;;;;;;;2.17;1.67;;;26.60;49.40;;;;;;5056637;28;20021;-63
2021/06/09 00:42:00;;;;;;;1.80;1.40;;;26.50;49.30;;;;;;5056563;28;20024;-64
2021/06/09 00:44:25;;;;;;;2.10;1.80;;;26.60;49.40;;;;;;5062650;28;20155;-66
2021/06/09 00:46:51;;;;;;;2.28;1.70;;;26.50;49.40;;;;;;5055965;28;20045;-63
2021/06/09 00:49:17;;;;;;;1.83;1.48;;;26.50;49.30;;;;;;5054755;28;20048;-64
2021/06/09 00:51:42;;;;;;;2.25;1.90;;;26.50;49.30;;;;;;5058031;28;20037;-63
2021/06/09 00:54:08;;;;;;;2.08;1.60;;;26.50;49.30;;;;;;5058323;28;20493;-63
2021/06/09 00:56:37;;;;;;;1.98;1.77;;;26.50;49.30;;;;;;5058132;28;20036;-63
2021/06/09 00:59:04;;;;;;;2.10;1.57;;;26.50;49.40;;;;;;5060764;28;20086;-63
2021/06/09 01:01:31;;;;;;;2.10;1.77;;;26.50;49.40;;;;;;5058082;28;20040;-64
2021/06/09 01:03:57;;;;;;;2.50;1.65;;;26.50;49.40;;;;;;5061362;28;20054;-64
2021/06/09 01:06:23;;;;;;;2.00;1.70;;;26.50;49.40;;;;;;5063152;28;20036;-64
2021/06/09 01:08:51;;;;;;;2.53;1.70;;;26.50;49.40;;;;;;5055258;28;20427;-64
2021/06/09 01:11:20;;;;;;;2.70;1.97;;;26.50;49.40;;;;;;5054821;28;20053;-63
2021/06/09 01:13:46;;;;;;;2.58;1.80;;;26.40;49.30;;;;;;5071089;28;20021;-64
2021/06/09 01:16:12;;;;;;;2.25;1.77;;;26.40;49.30;;;;;;5056375;28;20116;-64
2021/06/09 01:18:38;;;;;;;2.13;1.65;;;26.40;49.30;;;;;;5068104;28;20480;-63
2021/06/09 01:21:05;;;;;;;2.00;1.60;;;26.40;49.30;;;;;;5067517;28;20028;-63
2021/06/09 01:23:32;;;;;;;2.45;1.70;;;26.40;49.30;;;;;;5059226;28;20033;-63
2021/06/09 01:25:58;;;;;;;2.33;1.73;;;26.40;49.30;;;;;;5065531;28;20033;-64
2021/06/09 01:28:25;;;;;;;1.70;1.50;;;26.40;49.30;;;;;;5067555;28;20117;-63
2021/06/09 01:30:51;;;;;;;2.42;1.70;;;26.40;49.30;;;;;;5061676;28;20063;-63
2021/06/09 01:33:19;;;;;;;2.28;1.80;;;26.40;49.30;;;;;;5048777;28;20081;-64
2021/06/09 01:35:45;;;;;;;2.13;1.70;;;26.40;49.30;;;;;;5056308;28;20372;-63
2021/06/09 01:38:11;;;;;;;2.05;1.70;;;26.40;49.30;;;;;;5059471;28;20599;-64
2021/06/09 01:40:37;;;;;;;2.08;1.70;;;26.40;49.30;;;;;;5050180;28;20123;-63
2021/06/09 01:43:03;;;;;;;2.00;1.60;;;26.40;49.30;;;;;;5058055;28;20034;-63
2021/06/09 01:45:34;;;;;;;2.10;1.60;;;26.40;49.30;;;;;;5065222;28;20032;-63
2021/06/09 01:48:00;;;;;;;2.13;1.60;;;26.40;49.30;;;;;;5053731;28;20079;-63
2021/06/09 01:50:27;;;;;;;2.10;1.60;;;26.40;49.30;;;;;;5059577;28;20420;-63
2021/06/09 01:52:54;;;;;;;2.35;1.75;;;26.40;49.30;;;;;;5051309;28;20048;-63
2021/06/09 01:55:23;;;;;;;2.40;1.65;;;26.30;49.20;;;;;;5051909;28;20017;-63
2021/06/09 01:57:50;;;;;;;2.35;1.73;;;26.40;49.30;;;;;;5062270;28;20432;-63
2021/06/09 02:00:28;;;;;;;2.10;1.60;;;26.30;49.30;;;;;;5052402;28;20025;-63
2021/06/09 02:02:59;;;;;;;2.20;1.70;;;26.30;49.30;;;;;;5061331;28;20094;-63
2021/06/09 02:05:32;;;;;;;2.40;1.60;;;26.40;49.30;;;;;;5052440;28;20448;-65
2021/06/09 02:08:03;;;;;;;2.40;1.60;;;26.30;49.30;;;;;;5049922;28;20028;-65
2021/06/09 02:10:29;;;;;;;2.47;1.70;;;26.30;49.30;;;;;;5056032;28;20616;-65
2021/06/09 02:12:58;;;;;;;3.53;1.70;;;26.30;49.30;;;;;;5062899;28;20028;-65
2021/06/09 02:15:26;;;;;;;2.33;1.70;;;26.30;49.30;;;;;;5067320;28;20124;-65
2021/06/09 02:17:57;;;;;;;2.58;2.00;;;26.30;49.30;;;;;;5059342;28;20093;-66
2021/06/09 02:20:28;;;;;;;1.88;1.63;;;26.30;49.30;;;;;;5059052;28;20031;-65
2021/06/09 02:22:55;;;;;;;1.92;1.65;;;26.30;49.30;;;;;;5057638;28;20029;-65
2021/06/09 02:25:21;;;;;;;2.35;1.65;;;26.30;49.30;;;;;;5064759;28;20091;-65
2021/06/09 02:27:47;;;;;;;2.13;1.70;;;26.30;49.30;;;;;;5063258;28;20047;-65
2021/06/09 02:30:14;;;;;;;1.95;1.50;;;26.30;49.30;;;;;;5059279;28;20588;-65
2021/06/09 02:32:45;;;;;;;1.70;1.50;;;26.30;49.30;;;;;;5060627;28;20070;-65
2021/06/09 02:35:14;;;;;;;2.40;1.67;;;26.30;49.30;;;;;;5049456;28;20548;-65
2021/06/09 02:37:41;;;;;;;2.17;1.80;;;26.30;49.30;;;;;;5053164;28;20115;-65
2021/06/09 02:40:08;;;;;;;2.28;1.58;;;26.30;49.30;;;;;;5049668;28;20357;-65
2021/06/09 02:42:36;;;;;;;2.00;1.50;;;26.20;49.20;;;;;;5048726;28;20140;-65
2021/06/09 02:45:05;;;;;;;2.17;1.60;;;26.20;49.20;;;;;;5048844;28;20037;-65
2021/06/09 02:47:33;;;;;;;2.00;1.67;;;26.20;49.30;;;;;;5052651;28;20436;-65
2021/06/09 02:49:59;;;;;;;1.85;1.60;;;26.20;49.20;;;;;;5057644;28;20039;-65
2021/06/09 02:52:30;;;;;;;2.05;1.60;;;26.20;49.20;;;;;;5059730;28;20025;-65
2021/06/09 02:55:11;;;;;;;2.08;1.50;;;26.20;49.30;;;;;;5050251;28;20066;-63
2021/06/09 02:57:49;;;;;;;2.65;1.90;;;26.20;49.20;;;;;;5053028;28;20021;-65
2021/06/09 03:00:19;;;;;;;2.42;1.83;;;26.20;49.30;;;;;;5061546;28;20548;-63
2021/06/09 03:02:54;;;;;;;2.10;1.70;;;26.20;49.30;;;;;;5061832;28;20028;-63
2021/06/09 03:05:27;;;;;;;2.22;1.80;;;26.20;49.30;;;;;;5063881;28;20089;-63
2021/06/09 03:08:00;;;;;;;1.95;1.70;;;26.20;49.30;;;;;;5046662;28;20087;-63
2021/06/09 03:10:33;;;;;;;2.20;1.65;;;26.20;49.30;;;;;;5055588;28;20128;-63
2021/06/09 03:13:08;;;;;;;2.15;1.70;;;26.20;49.30;;;;;;5062235;28;20033;-63
2021/06/09 03:16:00;;;;;;;1.80;1.52;;;26.20;49.30;;;;;;5060384;28;20029;-63
2021/06/09 03:18:30;;;;;;;2.10;1.60;;;26.20;49.30;;;;;;5062563;28;20566;-63
2021/06/09 03:21:04;;;;;;;1.80;1.50;;;26.10;49.20;;;;;;5055177;28;20073;-63
2021/06/09 03:23:52;;;;;;;2.33;1.70;;;26.10;49.30;;;;;;5067148;28;20024;-64
2021/06/09 03:26:37;;;;;;;2.30;1.60;;;26.10;49.30;;;;;;5067736;28;20113;-63
2021/06/09 03:29:08;;;;;;;2.40;1.60;;;26.10;49.20;;;;;;5063993;28;20603;-63
2021/06/09 03:31:43;;;;;;;2.78;1.58;;;26.10;49.30;;;;;;5063274;28;20571;-63
2021/06/09 03:34:18;;;;;;;1.90;1.40;;;26.10;49.30;;;;;;5060212;28;20059;-63
2021/06/09 03:36:44;;;;;;;1.73;1.50;;;26.10;49.30;;;;;;5060680;28;20321;-64
2021/06/09 03:39:13;;;;;;;2.03;1.50;;;26.10;49.30;;;;;;5064470;28;20025;-63
2021/06/09 03:41:44;;;;;;;;;;;26.10;49.30;;;;;;5062728;28;20078;-63
2021/06/09 03:44:11;;;;;;;2.00;1.63;;;26.10;49.30;;;;;;5057233;28;20000;-64
2021/06/09 03:46:38;;;;;;;1.65;1.50;;;26.10;49.30;;;;;;5056807;28;20340;-64
2021/06/09 03:49:13;;;;;;;1.70;1.33;;;26.10;49.30;;;;;;5063981;28;20858;-63
2021/06/09 03:51:41;;;;;;;1.58;1.40;;;26.10;49.30;;;;;;5048598;28;20070;-64
2021/06/09 03:54:07;;;;;;;1.75;1.50;;;26.10;49.30;;;;;;5061571;28;20028;-63
2021/06/09 03:56:35;;;;;;;1.70;1.40;;;26.10;49.30;;;;;;5058999;28;20081;-63
2021/06/09 03:59:03;;;;;;;2.70;1.60;;;26.10;49.80;;;;;;5060571;28;20033;-64
2021/06/09 04:01:30;;;;;;;2.28;1.50;;;26.10;49.30;;;;;;5061225;28;20119;-63
2021/06/09 04:03:58;;;;;;;1.90;1.50;;;26.00;49.20;;;;;;5048585;28;20475;-64
2021/06/09 04:06:25;;;;;;;2.00;1.60;;;26.10;49.30;;;;;;5051661;28;20083;-64
2021/06/09 04:08:52;;;;;;;2.10;1.60;;;26.00;49.20;;;;;;5055262;28;20029;-63
2021/06/09 04:11:20;;;;;;;2.00;1.50;;;26.10;49.30;;;;;;5048453;28;20538;-64
2021/06/09 04:13:48;;;;;;;1.60;1.42;;;26.00;49.30;;;;;;5057317;28;20078;-64
2021/06/09 04:16:17;;;;;;;2.13;1.70;;;26.10;49.30;;;;;;5049359;28;20025;-63
2021/06/09 04:18:45;;;;;;;1.98;1.60;;;26.00;49.30;;;;;;5054424;28;20463;-64
2021/06/09 04:21:11;;;;;;;2.13;1.63;;;26.00;49.30;;;;;;5055280;28;20021;-64
2021/06/09 04:23:38;;;;;;;1.85;1.40;;;26.00;49.30;;;;;;5059623;28;20036;-64
2021/06/09 04:26:06;;;;;;;1.48;1.33;;;26.00;49.30;;;;;;5062066;28;20036;-65
2021/06/09 04:28:32;;;;;;;2.37;1.60;;;26.00;49.30;;;;;;5060410;28;20033;-65
2021/06/09 04:30:59;;;;;;;1.67;1.33;;;26.00;49.30;;;;;;5062792;28;20859;-64
2021/06/09 04:33:30;;;;;;;2.08;1.33;;;26.00;49.30;;;;;;5062271;28;20522;-64
2021/06/09 04:35:56;;;;;;;1.70;1.40;;;26.00;49.30;;;;;;5059778;28;20532;-63
2021/06/09 04:38:22;;;;;;;1.80;1.50;;;26.00;49.30;;;;;;5068284;28;20023;-64
2021/06/09 04:40:52;;;;;;;1.80;1.50;;;26.00;49.30;;;;;;5060022;28;20029;-63
2021/06/09 04:43:21;;;;;;;2.70;1.67;;;26.00;49.20;;;;;;5056818;28;20040;-63
2021/06/09 04:45:47;;;;;;;2.17;1.50;;;26.00;49.20;;;;;;5063056;28;20049;-63
2021/06/09 04:48:15;;;;;;;2.17;1.70;;;26.00;49.30;;;;;;5060609;28;20060;-63
2021/06/09 04:50:43;;;;;;;1.90;1.40;;;26.00;49.30;;;;;;5050898;28;20097;-63
2021/06/09 04:53:11;;;;;;;2.00;1.52;;;26.00;49.30;;;;;;5055705;28;20020;-63
2021/06/09 04:55:43;;;;;;;1.90;1.50;;;26.00;49.30;;;;;;5064857;28;20029;-63
2021/06/09 04:58:10;;;;;;;2.10;1.60;;;25.90;49.30;;;;;;5059047;28;20116;-63
2021/06/09 05:00:36;;;;;;;1.98;1.60;;;25.90;49.30;;;;;;5062284;28;20037;-63
2021/06/09 05:03:02;;;;;;;3.53;1.60;;;25.90;49.30;;;;;;5072930;28;20076;-62
2021/06/09 05:05:28;;;;;;;1.70;1.42;;;25.90;49.30;;;;;;5054553;28;20033;-63
2021/06/09 05:07:54;;;;;;;1.52;1.40;;;25.90;49.30;;;;;;5058318;28;20122;-63
2021/06/09 05:10:20;;;;;;;2.17;1.55;;;25.90;49.30;;;;;;5055011;28;20024;-63
2021/06/09 05:13:08;;;;;;;1.80;1.50;;;25.90;49.30;;;;;;5068101;28;20032;-62
2021/06/09 05:15:39;;;;;;;1.75;1.40;;;25.90;49.30;;;;;;5062965;28;20098;-63
2021/06/09 05:18:16;;;;;;;2.13;1.42;;;25.90;49.30;;;;;;5058175;28;20033;-63
2021/06/09 05:20:45;;;;;;;2.35;1.70;;;25.90;49.30;;;;;;5052037;28;20021;-63
2021/06/09 05:23:17;;;;;;;2.08;1.50;;;25.90;49.30;;;;;;5060312;28;20085;-63
2021/06/09 05:25:44;;;;;;;1.58;1.42;;;25.90;49.30;;;;;;5064631;28;20139;-63
2021/06/09 05:28:12;;;;;;;1.95;1.60;;;25.90;49.30;;;;;;5068861;28;20028;-63
2021/06/09 05:30:39;;;;;;;2.75;1.48;;;25.90;49.30;;;;;;5069419;28;20036;-63
2021/06/09 05:33:06;;;;;;;2.20;1.55;;;25.90;49.30;;;;;;5057155;28;20114;-63
2021/06/09 05:35:32;;;;;;;1.95;1.63;;;25.90;49.30;;;;;;5056970;28;20068;-63
2021/06/09 05:37:59;;;;;;;2.13;1.50;;;25.90;49.30;;;;;;5060399;28;20077;-62
2021/06/09 05:40:24;;;;;;;1.90;1.50;;;25.80;49.30;;;;;;5067527;28;20032;-63
2021/06/09 05:42:50;;;;;;;2.03;1.40;;;25.90;49.40;;;;;;5073957;28;20036;-64
2021/06/09 05:45:35;;;;;;;2.22;1.60;;;25.90;49.50;;;;;;5058841;28;20064;-62
2021/06/09 05:48:01;;;;;;;1.98;1.50;;;25.90;49.50;;;;;;5054603;28;20036;-62
2021/06/09 05:50:29;;;;;;;2.00;1.60;;;25.90;49.40;;;;;;5060079;28;20090;-63
2021/06/09 05:52:57;;;;;;;1.67;1.40;;;25.90;49.40;;;;;;5050257;28;20028;-63
2021/06/09 05:55:25;;;;;;;2.10;1.52;;;26.00;50.00;;;;;;5064393;28;20032;-63
2021/06/09 05:57:52;;;;;;;1.87;1.57;;;26.00;49.30;;;;;;5065541;28;20025;-63
2021/06/09 06:00:20;;;;;;;2.15;1.67;;;26.00;49.80;;;;;;5066583;28;20662;-63
2021/06/09 06:02:48;;;;;;;1.95;1.50;;;26.00;49.20;;;;;;5062561;28;20451;-62
2021/06/09 06:05:15;;;;;;;1.90;1.48;;;26.00;49.10;;;;;;5067334;28;20491;-63
2021/06/09 06:07:41;;;;;;;2.20;1.60;;;26.10;49.10;;;;;;5063557;28;20490;-62
2021/06/09 06:10:08;;;;;;;2.33;1.70;;;26.10;49.10;;;;;;5067431;28;20036;-62
2021/06/09 06:12:35;;;;;;;2.63;1.80;;;26.10;49.00;;;;;;5068812;28;20028;-62
2021/06/09 06:15:01;;;;;;;2.30;1.70;;;26.10;48.90;;;;;;5065090;28;20557;-62
2021/06/09 06:17:27;;;;;;;2.25;1.80;;;26.20;49.00;;;;;;5048527;28;20140;-62
2021/06/09 06:19:53;;;;;;;2.20;1.70;;;26.20;49.40;;;;;;5053492;28;20048;-62
2021/06/09 06:22:19;;;;;;;1.90;1.58;;;26.20;48.80;;;;;;5058921;28;20439;-62
2021/06/09 06:24:47;;;;;;;2.10;1.70;;;26.30;48.90;;;;;;5068649;28;20036;-62
2021/06/09 06:27:14;;;;;;;3.25;1.80;;;26.20;49.30;;;;;;5055470;28;20363;-62
2021/06/09 06:29:43;;;;;;;2.20;1.65;;;26.30;48.80;;;;;;5050708;28;20426;-62
2021/06/09 06:32:12;;;;;;;3.17;1.73;;;26.30;48.70;;;;;;5059831;28;20119;-62
2021/06/09 06:34:43;;;;;;;2.30;1.70;;;26.30;48.70;;;;;;5058574;28;20220;-63
2021/06/09 06:37:10;;;;;;;2.47;1.90;;;26.30;48.70;;;;;;5048762;28;20029;-63
2021/06/09 06:39:36;;;;;;;2.65;1.70;;;26.30;48.60;;;;;;5048941;28;20098;-62
2021/06/09 06:42:03;;;;;;;2.20;1.77;;;26.40;48.60;;;;;;5053664;28;20032;-63
2021/06/09 06:44:29;;;;;;;2.42;1.70;;;26.40;48.70;;;;;;5067785;28;20024;-62
2021/06/09 06:46:54;;;;;;;2.20;1.80;;;26.40;48.60;;;;;;5062995;28;20349;-63
2021/06/09 06:49:21;;;;;;;2.85;1.90;;;26.40;48.60;;;;;;5052001;28;20435;-63
2021/06/09 06:51:51;;;;;;;2.20;1.80;;;26.40;48.60;;;;;;5060379;28;20647;-62
2021/06/09 06:54:17;;;;;;;2.40;1.90;;;26.40;48.50;;;;;;5055005;28;20448;-63
2021/06/09 06:56:43;;;;;;;2.25;1.85;;;26.50;48.50;;;;;;5059231;28;20036;-61
2021/06/09 06:59:09;;;;;;;2.08;1.80;;;26.50;48.50;;;;;;5068048;28;20078;-62
2021/06/09 07:01:36;;;;;;;2.15;1.80;;;26.50;48.50;;;;;;5061351;28;20059;-63
2021/06/09 07:04:03;;;;;;;1.98;1.77;;;26.50;48.50;;;;;;5064884;28;20351;-62
2021/06/09 07:06:29;;;;;;;2.33;1.92;;;26.50;48.40;;;;;;5065535;28;20036;-63
2021/06/09 07:08:56;;;;;;;2.38;1.77;;;26.50;48.40;;;;;;5056744;28;20029;-62
2021/06/09 07:11:22;;;;;;;2.60;1.70;;;26.50;48.40;;;;;;5047525;28;20040;-62
2021/06/09 07:13:49;;;;;;;2.50;1.80;;;26.60;48.40;;;;;;5047980;28;20033;-62
2021/06/09 07:16:16;;;;;;;2.25;1.77;;;26.60;48.40;;;;;;5061801;28;20029;-63
2021/06/09 07:18:46;;;;;;;2.47;1.88;;;26.60;48.40;;;;;;5060788;28;20045;-62
2021/06/09 07:21:16;;;;;;;2.60;1.90;;;26.60;48.50;;;;;;5062582;28;20036;-62
2021/06/09 07:23:43;;;;;;;2.30;1.70;;;26.60;48.50;;;;;;5065917;28;20111;-62
2021/06/09 07:26:11;;;;;;;2.28;1.80;;;26.70;48.50;;;;;;5067405;28;20036;-62
2021/06/09 07:28:57;;;;;;;2.40;1.77;;;26.70;48.40;;;;;;5054113;28;20133;-62
2021/06/09 07:31:28;;;;;;;2.08;1.67;;;26.70;48.40;;;;;;5061897;28;20439;-62
2021/06/09 07:33:55;;;;;;;1.80;1.58;;;26.70;48.30;;;;;;5056549;28;20021;-62
2021/06/09 07:36:25;;;;;;;2.00;1.67;;;26.70;48.30;;;;;;5060001;28;20483;-62
2021/06/09 07:38:56;;;;;;;2.67;1.67;;;26.70;48.30;;;;;;5062372;28;20119;-62
2021/06/09 07:41:26;;;;;;;2.20;1.70;;;26.70;48.40;;;;;;5063383;28;20047;-62
2021/06/09 07:43:53;;;;;;;2.55;1.90;;;26.70;48.30;;;;;;5062810;28;20404;-62
2021/06/09 07:46:26;;;;;;;2.58;2.00;;;26.80;48.40;;;;;;5054580;28;20134;-62
2021/06/09 07:48:53;;;;;;;2.50;2.00;;;26.80;48.40;;;;;;5052114;28;20052;-62
2021/06/09 07:51:20;;;;;;;2.35;1.67;;;26.80;48.40;;;;;;5059119;28;20021;-62
2021/06/09 07:53:47;;;;;;;2.33;1.70;;;26.80;48.40;;;;;;5063165;28;20052;-62
2021/06/09 07:56:16;;;;;;;2.30;2.00;;;26.80;48.40;;;;;;5061539;28;20034;-62
2021/06/09 07:58:43;;;;;;;2.70;2.00;;;26.80;48.30;;;;;;5050455;28;20032;-62
2021/06/09 08:01:09;;;;;;;2.40;1.92;;;26.80;48.30;;;;;;5064707;28;20763;-62
2021/06/09 08:03:37;;;;;;;2.53;1.83;;;26.80;48.30;;;;;;5050364;28;20029;-63
2021/06/09 08:06:03;;;;;;;2.50;1.90;;;26.90;48.40;;;;;;5046694;28;20021;-63
2021/06/09 08:08:30;;;;;;;3.30;1.90;;;26.90;48.40;;;;;;5047212;28;20128;-61
2021/06/09 08:10:56;;;;;;;2.33;1.70;;;26.90;48.40;;;;;;5048425;28;20032;-62
2021/06/09 08:13:22;;;;;;;2.10;1.73;;;26.90;48.30;;;;;;5065763;28;20099;-62
2021/06/09 08:15:49;;;;;;;2.85;2.00;;;26.90;48.40;;;;;;5066606;28;20086;-61
2021/06/09 08:18:14;;;;;;;2.40;1.92;;;26.90;48.30;;;;;;5061730;28;20033;-62
2021/06/09 08:21:02;;;;;;;2.50;2.00;;;26.90;48.30;;;;;;5061292;28;20035;-61
2021/06/09 08:23:28;;;;;;;2.45;1.77;;;26.90;48.30;;;;;;5060964;28;20577;-61
2021/06/09 08:25:55;;;;;;;2.28;1.80;;;26.90;48.30;;;;;;5064937;28;20036;-61
2021/06/09 08:28:20;;;;;;;2.40;2.00;;;26.90;48.30;;;;;;5056624;28;20033;-62
2021/06/09 08:30:46;;;;;;;2.50;1.80;;;27.00;48.40;;;;;;5059697;28;20638;-61
2021/06/09 08:33:12;;;;;;;2.60;1.80;;;26.90;48.30;;;;;;5056566;28;20881;-62
2021/06/09 08:35:37;;;;;;;2.65;2.10;;;27.00;48.30;;;;;;5050703;28;20711;-62
2021/06/09 08:38:03;;;;;;;2.15;1.75;;;27.00;48.40;;;;;;5065820;28;20402;-62
2021/06/09 08:40:31;;;;;;;2.88;1.98;;;27.00;48.30;;;;;;5058737;28;20099;-62
2021/06/09 08:42:58;;;;;;;2.20;1.90;;;27.00;48.30;;;;;;5059856;28;20103;-61
2021/06/09 08:45:24;;;;;;;2.45;1.98;;;27.00;48.30;;;;;;5044650;28;20029;-61
2021/06/09 08:47:51;;;;;;;2.63;1.77;;;27.00;48.30;;;;;;5046348;28;20059;-62
2021/06/09 08:50:18;;;;;;;2.50;2.03;;;27.00;48.30;;;;;;5046518;28;20136;-62
2021/06/09 08:52:50;;;;;;;2.60;2.03;;;27.00;48.30;;;;;;5048128;28;20041;-62
2021/06/09 08:55:17;;;;;;;2.33;2.03;;;27.10;48.40;;;;;;5049301;28;20376;-62
2021/06/09 08:57:43;;;;;;;2.22;1.80;;;27.00;48.30;;;;;;5061006;28;20479;-64
2021/06/09 09:00:11;;;;;;;2.67;2.05;;;27.00;48.30;;;;;;5051895;28;20031;-61
2021/06/09 09:02:39;;;;;;;2.35;1.90;;;27.00;48.30;;;;;;5048936;28;20048;-65
2021/06/09 09:05:07;;;;;;;2.72;2.10;;;27.10;48.40;;;;;;5059829;28;20106;-62
2021/06/09 09:07:32;;;;;;;2.35;1.90;;;27.10;48.40;;;;;;5069714;28;20111;-63
2021/06/09 09:09:58;;;;;;;2.35;1.80;;;27.10;48.30;;;;;;5069216;28;20550;-62
2021/06/09 09:12:24;;;;;;;2.60;1.95;;;27.10;48.30;;;;;;5066994;28;20020;-63
2021/06/09 09:14:50;;;;;;;3.03;1.90;;;27.10;48.30;;;;;;5065492;28;20029;-62
2021/06/09 09:17:17;;;;;;;2.25;1.90;;;27.10;48.30;;;;;;5065779;28;20025;-61
2021/06/09 09:19:45;;;;;;;2.50;1.98;;;27.20;48.40;;;;;;5068789;28;20115;-62
2021/06/09 09:22:19;;;;;;;2.58;2.00;;;27.20;48.40;;;;;;5068083;28;20035;-61
2021/06/09 09:24:48;;;;;;;2.20;1.80;;;27.20;48.40;;;;;;5056586;28;20033;-62
2021/06/09 09:27:28;;;;;;;2.35;1.92;;;27.20;48.80;;;;;;5067326;28;20028;-62
2021/06/09 09:30:09;;;;;;;2.17;1.83;;;27.10;48.20;;;;;;5065143;28;20108;-62
2021/06/09 09:32:39;;;;;;;2.28;1.90;;;27.20;48.30;;;;;;5077445;28;20110;-65
2021/06/09 09:35:12;;;;;;;2.63;1.92;;;27.20;48.30;;;;;;5060009;28;20032;-63
2021/06/09 09:37:38;;;;;;;2.35;1.98;;;27.20;48.30;;;;;;5053377;28;20453;-62
2021/06/09 09:40:16;;;;;;;2.67;2.05;;;27.20;48.30;;;;;;5055740;28;20071;-60
2021/06/09 09:42:44;;;;;;;2.10;1.70;;;27.20;48.20;;;;;;5063074;28;20028;-60
2021/06/09 09:45:27;;;;;;;2.60;2.00;;;27.30;48.30;;;;;;5055086;28;20021;-62
2021/06/09 09:48:10;;;;;;;2.15;1.90;;;27.30;48.30;;;;;;5052586;28;20021;-60
2021/06/09 09:50:50;;;;;;;2.10;1.73;;;27.30;48.40;;;;;;5054670;28;20029;-61
2021/06/09 09:53:26;;;;;;;2.42;1.90;;;27.20;48.50;;;;;;5054420;28;20048;-60
2021/06/09 09:56:06;;;;;;;2.63;2.00;;;27.20;48.50;;;;;;5057599;28;20036;-60
2021/06/09 09:58:35;;;;;;;2.30;1.90;;;27.20;48.50;;;;;;5057042;28;20568;-60
2021/06/09 10:01:22;;;;;;;2.40;1.90;;;27.20;48.50;;;;;;5051817;28;20037;-62
2021/06/09 10:03:53;;;;;;;2.10;1.80;;;27.20;48.40;;;;;;5056679;28;20392;-62
2021/06/09 10:06:22;;;;;;;2.90;2.00;;;27.20;48.50;;;;;;5056879;28;20029;-61
2021/06/09 10:08:49;;;;;;;2.75;2.28;;;27.20;48.50;;;;;;5061353;28;20063;-61
2021/06/09 10:11:16;;;;;;;2.13;1.90;;;27.30;48.50;;;;;;5050529;28;20037;-60
2021/06/09 10:13:42;;;;;;;2.35;2.03;;;27.30;48.50;;;;;;5055752;28;20115;-62
2021/06/09 10:16:43;;;;;;;2.40;1.90;;;27.20;48.50;;;;;;5065839;28;20494;-61
2021/06/09 10:19:12;;;;;;;2.28;1.95;;;27.20;48.50;;;;;;5019659;28;20044;-60
2021/06/09 10:21:43;;;;;;;2.20;1.80;;;27.20;48.40;;;;;;5048820;28;20113;-61
2021/06/09 10:24:10;;;;;;;2.22;1.92;;;27.20;48.40;;;;;;5050214;28;20868;-61
2021/06/09 10:26:38;;;;;;;2.47;1.98;;;27.20;48.50;;;;;;5048538;28;20037;-63
2021/06/09 10:29:11;;;;;;;2.77;2.10;;;27.20;48.50;;;;;;5059864;28;20040;-61
2021/06/09 10:31:59;;;;;;;2.50;2.00;;;27.20;48.50;;;;;;5061918;28;20282;-60
2021/06/09 10:34:28;;;;;;;2.47;2.10;;;27.20;48.50;;;;;;5043140;28;20041;-62
2021/06/09 10:36:54;;;;;;;;;;;27.20;48.60;;;;;;5044658;28;20029;-61
2021/06/09 10:39:23;;;;;;;2.53;2.10;;;27.30;49.20;;;;;;5055896;28;19916;-62
2021/06/09 10:41:51;;;;;;;2.30;2.00;;;27.30;49.10;;;;;;5061429;28;20044;-62
2021/06/09 10:44:20;;;;;;;2.42;2.00;;;27.30;48.70;;;;;;5057757;28;20044;-62
2021/06/09 10:46:49;;;;;;;2.50;2.00;;;27.30;48.60;;;;;;5047119;28;20070;-61
2021/06/09 10:49:16;;;;;;;;;;;27.40;48.70;;;;;;5060096;28;20311;-62
2021/06/09 10:51:45;;;;;;;2.38;2.10;;;27.40;48.60;;;;;;5060179;28;19909;-61
2021/06/09 10:54:13;;;;;;;2.33;2.00;;;27.50;48.70;;;;;;5053123;28;20041;-62
2021/06/09 10:56:40;;;;;;;2.40;2.17;;;27.40;48.50;;;;;;5055829;28;20067;-60
2021/06/09 10:59:06;;;;;;;2.20;1.95;;;27.40;48.50;;;;;;5057157;28;20033;-61
2021/06/09 11:01:31;;;;;;;2.45;1.90;;;27.50;48.50;;;;;;5056862;28;20089;-61
2021/06/09 11:03:59;;;;;;;2.47;2.00;;;27.50;48.60;;;;;;5064467;28;20017;-61
2021/06/09 11:06:43;;;;;;;2.47;2.10;;;27.50;48.60;;;;;;5057847;28;20576;-61
2021/06/09 11:09:27;;;;;;;2.40;1.95;;;27.50;48.70;;;;;;5049572;28;20075;-61
2021/06/09 11:12:11;;;;;;;2.50;2.03;;;27.60;48.80;;;;;;5051286;28;20125;-62
2021/06/09 11:14:54;;;;;;;2.13;1.80;;;27.60;48.80;;;;;;5052000;28;20024;-61
2021/06/09 11:17:45;;;;;;;2.08;1.88;;;27.60;48.90;;;;;;5049076;28;20041;-64
2021/06/09 11:20:24;;;;;;;2.58;2.10;;;27.70;49.10;;;;;;5047887;28;20040;-61
2021/06/09 11:22:56;;;;;;;2.33;2.00;;;27.70;49.00;;;;;;5058841;28;20025;-63
2021/06/09 11:25:34;;;;;;;2.22;1.75;;;27.70;49.00;;;;;;5062200;28;20108;-61
2021/06/09 11:28:07;;;;;;;2.80;2.03;;;27.70;48.90;;;;;;5052933;28;20452;-61
2021/06/09 11:30:32;;;;;;;2.47;2.10;;;27.70;48.90;;;;;;5067310;28;20102;-61
2021/06/09 11:33:00;;;;;;;2.90;2.10;;;27.70;49.00;;;;;;5053899;28;20036;-62
2021/06/09 11:35:50;;;;;;;2.83;2.10;;;27.80;49.00;;;;;;5061638;28;20100;-63
2021/06/09 11:38:27;;;;;;;2.83;2.20;;;27.80;48.90;;;;;;5053679;28;20051;-62
2021/06/09 11:40:52;;;;;;;2.25;1.90;;;27.80;49.00;;;;;;5053315;28;20539;-60
2021/06/09 11:43:24;;;;;;;3.50;2.17;;;27.80;49.00;;;;;;5049327;28;20040;-62
2021/06/09 11:45:52;;;;;;;2.35;1.80;;;27.90;49.00;;;;;;5047412;28;20032;-61
2021/06/09 11:48:21;;;;;;;2.55;1.85;;;27.90;48.90;;;;;;5064885;28;20119;-59
2021/06/09 11:50:47;;;;;;;3.95;2.20;;;27.90;48.90;;;;;;5051467;28;20040;-61
2021/06/09 11:53:21;;;;;;;2.15;1.90;;;27.90;48.90;;;;;;5060572;28;20780;-58
2021/06/09 11:56:24;;;;;;;2.28;2.00;;;27.90;48.90;;;;;;5059953;28;20064;-63
2021/06/09 11:58:57;;;;;;;2.78;1.92;;;27.90;48.80;;;;;;5065022;28;20020;-63
2021/06/09 12:01:24;;;;;;;2.50;2.03;;;28.00;48.80;;;;;;5059772;28;20182;-61
2021/06/09 12:04:08;;;;;;;2.42;2.00;;;28.00;48.80;;;;;;5053851;28;20517;-62
2021/06/09 12:06:42;;;;;;;2.08;1.80;;;28.00;48.70;;;;;;5054841;28;20992;-62
2021/06/09 12:09:08;;;;;;;2.10;1.80;;;28.00;48.60;;;;;;5048401;28;20081;-63
2021/06/09 12:11:43;;;;;;;2.03;1.77;;;28.00;48.60;;;;;;5054842;28;20056;-63
2021/06/09 12:14:19;;;;;;;2.30;1.90;;;28.00;48.50;;;;;;5074545;28;20078;-63
2021/06/09 12:16:45;;;;;;;2.33;1.80;;;28.10;48.50;;;;;;5060091;28;20028;-62
2021/06/09 12:19:29;;;;;;;2.85;2.13;;;28.10;48.60;;;;;;5059718;28;20024;-63
2021/06/09 12:22:10;;;;;;;2.30;1.90;;;28.10;48.50;;;;;;5051081;28;20109;-63
2021/06/09 12:24:37;;;;;;;2.05;1.70;;;28.20;48.50;;;;;;5055488;28;20132;-63
2021/06/09 12:27:11;;;;;;;2.30;1.90;;;28.10;48.60;;;;;;5052120;28;20063;-63
2021/06/09 12:29:41;;;;;;;2.08;1.70;;;28.20;49.10;;;;;;5045945;28;20025;-63
2021/06/09 12:32:26;;;;;;;2.25;1.90;;;28.20;48.80;;;;;;5058105;28;20032;-63
2021/06/09 12:34:59;;;;;;;2.45;1.90;;;28.20;48.80;;;;;;5044254;28;20456;-61
2021/06/09 12:37:27;;;;;;;2.55;2.00;;;28.20;48.80;;;;;;5044797;28;20048;-62
2021/06/09 12:40:10;;;;;;;2.47;1.80;;;28.20;49.30;;;;;;5050896;28;20085;-61
2021/06/09 12:42:37;;;;;;;2.35;1.92;;;28.20;48.60;;;;;;5062910;28;20029;-64
2021/06/09 12:45:09;;;;;;;2.15;1.77;;;28.30;48.60;;;;;;5053824;28;20029;-62
2021/06/09 12:47:38;;;;;;;2.55;1.90;;;28.30;48.70;;;;;;5056696;28;20132;-62
2021/06/09 12:50:13;;;;;;;3.42;2.00;;;28.30;48.70;;;;;;5054905;28;20024;-62
2021/06/09 12:52:40;;;;;;;2.25;1.70;;;28.30;48.70;;;;;;5052908;28;20068;-64
2021/06/09 12:55:18;;;;;;;2.10;1.80;;;28.30;48.70;;;;;;5057630;28;20801;-61
2021/06/09 12:57:44;;;;;;;2.00;1.80;;;28.30;48.60;;;;;;5059229;28;20025;-62
2021/06/09 13:00:39;;;;;;;2.17;1.77;;;28.40;48.60;;;;;;5060931;28;20013;-62